Time,TemperatureF,DewpointF,PressureIn,WindDirection,WindDirectionDegrees,WindSpeedMPH,WindSpeedGustMPH,Humidity,HourlyPrecipIn,Conditions,Clouds,dailyrainin,SoftwareType,DateUTC
2013-09-03 00:02:00,72.9,67.0,29.72,WSW,258,0.0,-999.0,81,-99.99,,,0.00,weatherlink.com 1.10,2013-09-03 04:02:00,
2013-09-03 00:17:00,72.6,66.0,29.73,WSW,258,0.0,-999.0,80,-99.99,,,0.00,weatherlink.com 1.10,2013-09-03 04:17:00,
2013-09-03 00:32:00,72.3,66.0,29.74,WSW,258,0.0,-999.0,80,-99.99,,,0.00,weatherlink.com 1.10,2013-09-03 04:32:00,
2013-09-03 00:47:00,72.1,66.0,29.74,WSW,258,0.0,-999.0,81,-99.99,,,0.00,weatherlink.com 1.10,2013-09-03 04:47:00,
2013-09-03 01:02:00,71.6,66.0,29.73,WSW,258,0.0,-999.0,82,-99.99,,,0.00,weatherlink.com 1.10,2013-09-03 05:02:00,
2013-09-03 01:17:00,70.6,66.0,29.73,WSW,258,0.0,-999.0,84,-99.99,,,0.00,weatherlink.com 1.10,2013-09-03 05:17:00,
2013-09-03 01:32:00,69.9,65.0,29.72,WSW,258,0.0,-999.0,85,-99.99,,,0.00,weatherlink.com 1.10,2013-09-03 05:32:00,
2013-09-03 01:47:00,69.4,65.0,29.73,WSW,258,0.0,-999.0,86,-99.99,,,0.00,weatherlink.com 1.10,2013-09-03 05:47:00,
2013-09-03 02:02:00,68.7,64.0,29.73,WSW,258,0.0,-999.0,86,-99.99,,,0.00,weatherlink.com 1.10,2013-09-03 06:02:00,
2013-09-03 02:17:00,68.3,65.0,29.73,WSW,258,0.0,-999.0,88,-99.99,,,0.00,weatherlink.com 1.10,2013-09-03 06:17:00,
2013-09-03 02:32:00,68.3,65.0,29.73,WSW,258,0.0,-999.0,89,-99.99,,,0.00,weatherlink.com 1.10,2013-09-03 06:32:00,
2013-09-03 02:47:00,68.4,65.0,29.74,WSW,258,0.0,-999.0,89,-99.99,,,0.00,weatherlink.com 1.10,2013-09-03 06:47:00,
2013-09-03 03:02:00,68.5,65.0,29.73,WSW,258,0.0,-999.0,89,-99.99,,,0.00,weatherlink.com 1.10,2013-09-03 07:02:00,
2013-09-03 03:17:00,68.7,65.0,29.74,SSW,209,0.0,-999.0,88,-99.99,,,0.00,weatherlink.com 1.10,2013-09-03 07:17:00,
2013-09-03 03:32:00,69.7,65.0,29.74,NW,304,2.0,-999.0,85,-99.99,,,0.00,weatherlink.com 1.10,2013-09-03 07:32:00,
2013-09-03 03:47:00,70.2,65.0,29.75,WSW,253,0.0,-999.0,83,-99.99,,,0.00,weatherlink.com 1.10,2013-09-03 07:47:00,
2013-09-03 04:02:00,70.7,65.0,29.75,WSW,257,0.0,-999.0,82,-99.99,,,0.00,weatherlink.com 1.10,2013-09-03 08:02:00,
2013-09-03 04:17:00,70.8,65.0,29.75,NNW,327,3.0,-999.0,81,-99.99,,,0.00,weatherlink.com 1.10,2013-09-03 08:17:00,
2013-09-03 04:32:00,70.9,65.0,29.75,West,269,0.0,-999.0,81,-99.99,,,0.00,weatherlink.com 1.10,2013-09-03 08:32:00,
2013-09-03 04:48:00,70.8,65.0,29.75,SW,233,3.0,-999.0,81,-99.99,,,0.00,weatherlink.com 1.10,2013-09-03 08:48:00,
2013-09-03 05:02:00,70.6,65.0,29.75,NW,324,0.0,-999.0,82,-99.99,,,0.00,weatherlink.com 1.10,2013-09-03 09:02:00,
2013-09-03 05:17:00,70.4,65.0,29.75,WNW,294,0.0,-999.0,82,-99.99,,,0.00,weatherlink.com 1.10,2013-09-03 09:17:00,
2013-09-03 05:32:00,70.2,65.0,29.76,WNW,286,3.0,-999.0,82,-99.99,,,0.00,weatherlink.com 1.10,2013-09-03 09:32:00,
2013-09-03 05:47:00,70.0,64.0,29.76,ESE,113,1.0,-999.0,82,-99.99,,,0.00,weatherlink.com 1.10,2013-09-03 09:47:00,
2013-09-03 06:02:00,69.7,64.0,29.77,NW,307,0.0,-999.0,83,-99.99,,,0.00,weatherlink.com 1.10,2013-09-03 10:02:00,
2013-09-03 06:17:00,69.4,64.0,29.78,West,269,1.0,-999.0,82,-99.99,,,0.00,weatherlink.com 1.10,2013-09-03 10:17:00,
2013-09-03 06:32:00,69.1,63.0,29.79,WSW,256,2.0,-999.0,82,-99.99,,,0.00,weatherlink.com 1.10,2013-09-03 10:32:00,
2013-09-03 06:48:00,68.9,63.0,29.79,West,272,0.0,-999.0,82,-99.99,,,0.00,weatherlink.com 1.10,2013-09-03 10:48:00,
2013-09-03 07:03:00,68.6,63.0,29.80,SW,214,0.0,-999.0,82,-99.99,,,0.00,weatherlink.com 1.10,2013-09-03 11:03:00,
2013-09-03 07:18:00,68.3,63.0,29.81,SW,216,2.0,-999.0,82,-99.99,,,0.00,weatherlink.com 1.10,2013-09-03 11:18:00,
2013-09-03 07:33:00,67.8,62.0,29.81,SW,225,0.0,-999.0,82,-99.99,,,0.00,weatherlink.com 1.10,2013-09-03 11:33:00,
2013-09-03 07:48:00,67.6,62.0,29.81,SW,230,0.0,-999.0,83,-99.99,,,0.00,weatherlink.com 1.10,2013-09-03 11:48:00,
2013-09-03 08:03:00,67.4,62.0,29.81,WNW,282,0.0,-999.0,82,-99.99,,,0.00,weatherlink.com 1.10,2013-09-03 12:03:00,
2013-09-03 08:18:00,67.4,62.0,29.82,WNW,282,0.0,-999.0,83,-99.99,,,0.00,weatherlink.com 1.10,2013-09-03 12:18:00,
2013-09-03 08:33:00,67.4,62.0,29.82,WNW,283,0.0,-999.0,82,-99.99,,,0.00,weatherlink.com 1.10,2013-09-03 12:33:00,
2013-09-03 08:48:00,67.9,62.0,29.82,SW,232,1.0,-999.0,81,-99.99,,,0.00,weatherlink.com 1.10,2013-09-03 12:48:00,
2013-09-03 09:03:00,68.7,62.0,29.82,SW,229,2.0,-999.0,80,-99.99,,,0.00,weatherlink.com 1.10,2013-09-03 13:03:00,
2013-09-03 09:18:00,69.8,62.0,29.82,SW,221,3.0,-999.0,75,-99.99,,,0.00,weatherlink.com 1.10,2013-09-03 13:18:00,
2013-09-03 09:33:00,70.5,61.0,29.82,NW,314,0.0,-999.0,71,-99.99,,,0.00,weatherlink.com 1.10,2013-09-03 13:33:00,
2013-09-03 09:48:00,71.1,60.0,29.82,WNW,299,3.0,-999.0,68,-99.99,,,0.00,weatherlink.com 1.10,2013-09-03 13:48:00,
2013-09-03 10:03:00,71.5,59.0,29.83,WNW,288,2.0,-999.0,64,-99.99,,,0.00,weatherlink.com 1.10,2013-09-03 14:03:00,
2013-09-03 10:18:00,72.1,59.0,29.82,West,260,3.0,-999.0,63,-99.99,,,0.00,weatherlink.com 1.10,2013-09-03 14:18:00,
2013-09-03 10:33:00,72.2,60.0,29.83,West,269,3.0,-999.0,65,-99.99,,,0.00,weatherlink.com 1.10,2013-09-03 14:33:00,
2013-09-03 10:48:00,72.5,59.0,29.83,WSW,246,5.0,-999.0,63,-99.99,,,0.00,weatherlink.com 1.10,2013-09-03 14:48:00,
2013-09-03 11:03:00,73.3,58.0,29.83,West,267,8.0,-999.0,60,-99.99,,,0.00,weatherlink.com 1.10,2013-09-03 15:03:00,
2013-09-03 11:18:00,73.1,59.0,29.83,NW,312,3.0,-999.0,61,-99.99,,,0.00,weatherlink.com 1.10,2013-09-03 15:18:00,
2013-09-03 11:33:00,72.9,58.0,29.83,West,273,4.0,-999.0,60,-99.99,,,0.00,weatherlink.com 1.10,2013-09-03 15:33:00,
2013-09-03 11:48:00,73.0,58.0,29.82,WNW,290,4.0,-999.0,59,-99.99,,,0.00,weatherlink.com 1.10,2013-09-03 15:48:00,
2013-09-03 12:03:00,74.5,58.0,29.82,NW,312,4.0,-999.0,56,-99.99,,,0.00,weatherlink.com 1.10,2013-09-03 16:03:00,
2013-09-03 12:18:00,75.2,58.0,29.82,NNW,333,7.0,-999.0,56,-99.99,,,0.00,weatherlink.com 1.10,2013-09-03 16:18:00,
2013-09-03 12:33:00,74.9,58.0,29.82,West,281,5.0,-999.0,55,-99.99,,,0.00,weatherlink.com 1.10,2013-09-03 16:33:00,
2013-09-03 12:48:00,75.1,57.0,29.82,NW,312,4.0,-999.0,54,-99.99,,,0.00,weatherlink.com 1.10,2013-09-03 16:48:00,
2013-09-03 13:03:00,76.4,59.0,29.82,WNW,287,0.0,-999.0,55,-99.99,,,0.00,weatherlink.com 1.10,2013-09-03 17:03:00,
2013-09-03 13:18:00,77.7,58.0,29.82,West,259,2.0,-999.0,50,-99.99,,,0.00,weatherlink.com 1.10,2013-09-03 17:18:00,
2013-09-03 13:33:00,76.8,58.0,29.82,West,261,5.0,-999.0,52,-99.99,,,0.00,weatherlink.com 1.10,2013-09-03 17:33:00,
2013-09-03 13:48:00,75.7,56.0,29.82,WSW,255,1.0,-999.0,51,-99.99,,,0.00,weatherlink.com 1.10,2013-09-03 17:48:00,
2013-09-03 14:03:00,77.8,57.0,29.82,West,265,4.0,-999.0,49,-99.99,,,0.00,weatherlink.com 1.10,2013-09-03 18:03:00,
2013-09-03 14:18:00,76.1,56.0,29.81,WSW,248,4.0,-999.0,50,-99.99,,,0.00,weatherlink.com 1.10,2013-09-03 18:18:00,
2013-09-03 14:33:00,76.1,57.0,29.82,WNW,298,3.0,-999.0,52,-99.99,,,0.00,weatherlink.com 1.10,2013-09-03 18:33:00,
2013-09-03 14:48:00,75.9,56.0,29.81,WNW,300,4.0,-999.0,51,-99.99,,,0.00,weatherlink.com 1.10,2013-09-03 18:48:00,
2013-09-03 15:03:00,75.7,57.0,29.82,West,269,6.0,-999.0,53,-99.99,,,0.00,weatherlink.com 1.10,2013-09-03 19:03:00,
2013-09-03 15:18:00,75.0,57.0,29.82,NNW,331,4.0,-999.0,53,-99.99,,,0.00,weatherlink.com 1.10,2013-09-03 19:18:00,
2013-09-03 15:33:00,75.3,57.0,29.81,SW,217,5.0,-999.0,54,-99.99,,,0.00,weatherlink.com 1.10,2013-09-03 19:33:00,
2013-09-03 15:48:00,75.1,58.0,29.82,SSW,213,4.0,-999.0,56,-99.99,,,0.00,weatherlink.com 1.10,2013-09-03 19:48:00,
2013-09-03 16:03:00,74.7,57.0,29.82,NNW,336,3.0,-999.0,55,-99.99,,,0.00,weatherlink.com 1.10,2013-09-03 20:03:00,
2013-09-03 16:18:00,76.0,59.0,29.82,West,279,4.0,-999.0,55,-99.99,,,0.00,weatherlink.com 1.10,2013-09-03 20:18:00,
2013-09-03 16:33:00,77.3,58.0,29.82,NW,317,5.0,-999.0,51,-99.99,,,0.00,weatherlink.com 1.10,2013-09-03 20:33:00,
2013-09-03 16:48:00,75.8,57.0,29.82,SW,228,7.0,-999.0,53,-99.99,,,0.00,weatherlink.com 1.10,2013-09-03 20:48:00,
2013-09-03 17:03:00,74.8,57.0,29.83,NNW,346,5.0,-999.0,55,-99.99,,,0.00,weatherlink.com 1.10,2013-09-03 21:03:00,
2013-09-03 17:18:00,73.9,57.0,29.83,West,268,4.0,-999.0,56,-99.99,,,0.00,weatherlink.com 1.10,2013-09-03 21:18:00,
2013-09-03 17:33:00,73.7,57.0,29.83,West,278,2.0,-999.0,57,-99.99,,,0.00,weatherlink.com 1.10,2013-09-03 21:33:00,
2013-09-03 17:48:00,73.6,58.0,29.84,West,261,3.0,-999.0,58,-99.99,,,0.00,weatherlink.com 1.10,2013-09-03 21:48:00,
2013-09-03 18:03:00,72.9,58.0,29.84,WSW,254,3.0,-999.0,60,-99.99,,,0.00,weatherlink.com 1.10,2013-09-03 22:03:00,
2013-09-03 18:18:00,72.6,58.0,29.84,WNW,303,2.0,-999.0,60,-99.99,,,0.00,weatherlink.com 1.10,2013-09-03 22:18:00,
2013-09-03 18:33:00,72.3,58.0,29.85,WNW,284,5.0,-999.0,60,-99.99,,,0.00,weatherlink.com 1.10,2013-09-03 22:33:00,
2013-09-03 18:48:00,72.0,58.0,29.85,West,277,4.0,-999.0,61,-99.99,,,0.00,weatherlink.com 1.10,2013-09-03 22:48:00,
2013-09-03 19:03:00,71.6,58.0,29.86,West,265,4.0,-999.0,62,-99.99,,,0.00,weatherlink.com 1.10,2013-09-03 23:03:00,
2013-09-03 19:18:00,71.2,58.0,29.86,West,261,2.0,-999.0,63,-99.99,,,0.00,weatherlink.com 1.10,2013-09-03 23:18:00,
2013-09-03 19:34:00,70.8,58.0,29.86,West,271,3.0,-999.0,64,-99.99,,,0.00,weatherlink.com 1.10,2013-09-03 23:34:00,
2013-09-03 19:49:00,70.5,58.0,29.87,West,267,3.0,-999.0,65,-99.99,,,0.00,weatherlink.com 1.10,2013-09-03 23:49:00,
2013-09-03 20:04:00,70.2,58.0,29.88,SW,226,0.0,-999.0,66,-99.99,,,0.00,weatherlink.com 1.10,2013-09-04 00:04:00,
2013-09-03 20:19:00,69.8,58.0,29.89,WSW,237,1.0,-999.0,66,-99.99,,,0.00,weatherlink.com 1.10,2013-09-04 00:19:00,
2013-09-03 20:34:00,69.5,58.0,29.89,West,271,1.0,-999.0,67,-99.99,,,0.00,weatherlink.com 1.10,2013-09-04 00:34:00,
2013-09-03 20:49:00,69.2,58.0,29.90,WNW,286,3.0,-999.0,67,-99.99,,,0.00,weatherlink.com 1.10,2013-09-04 00:49:00,
2013-09-03 21:04:00,68.9,58.0,29.90,WNW,286,4.0,-999.0,68,-99.99,,,0.00,weatherlink.com 1.10,2013-09-04 01:04:00,
2013-09-03 21:19:00,68.5,58.0,29.91,West,260,2.0,-999.0,69,-99.99,,,0.00,weatherlink.com 1.10,2013-09-04 01:19:00,
2013-09-03 21:34:00,68.2,58.0,29.91,West,261,1.0,-999.0,69,-99.99,,,0.00,weatherlink.com 1.10,2013-09-04 01:34:00,
2013-09-03 21:35:00,68.2,57.6,29.91,West,261,1.0,1.0,69,0.00,,,0.00,Wunderground v.1.15,2013-09-04 01:35:00,
2013-09-03 21:40:00,68.1,57.9,29.92,West,261,1.0,1.0,70,0.00,,,0.00,Wunderground v.1.15,2013-09-04 01:40:00,
2013-09-03 21:45:00,68.0,57.8,29.92,WSW,237,1.0,3.0,70,0.00,,,0.00,Wunderground v.1.15,2013-09-04 01:45:00,
2013-09-03 21:49:00,67.9,58.0,29.92,West,275,2.0,-999.0,70,-99.99,,,0.00,weatherlink.com 1.10,2013-09-04 01:49:00,
2013-09-03 21:50:00,67.9,57.8,29.92,NW,309,2.0,3.0,70,0.00,,,0.00,Wunderground v.1.15,2013-09-04 01:50:00,
2013-09-03 21:55:00,67.8,57.7,29.92,SSW,206,2.0,2.0,70,0.00,,,0.00,Wunderground v.1.15,2013-09-04 01:55:00,
2013-09-03 22:00:00,67.6,57.5,29.92,West,265,2.0,2.0,70,0.00,,,0.00,Wunderground v.1.15,2013-09-04 02:00:00,
2013-09-03 22:04:00,67.6,57.0,29.92,WSW,253,3.0,-999.0,70,-99.99,,,0.00,weatherlink.com 1.10,2013-09-04 02:04:00,
2013-09-03 22:05:00,67.6,57.5,29.92,NW,323,2.0,2.0,70,0.00,,,0.00,Wunderground v.1.15,2013-09-04 02:05:00,
2013-09-03 22:20:00,67.3,58.0,29.92,WSW,250,1.0,-999.0,71,-99.99,,,0.00,weatherlink.com 1.10,2013-09-04 02:20:00,
2013-09-03 22:35:00,66.9,58.0,29.92,WNW,284,3.0,-999.0,72,-99.99,,,0.00,weatherlink.com 1.10,2013-09-04 02:35:00,
2013-09-03 22:50:00,66.5,58.0,29.92,WSW,250,4.0,-999.0,73,-99.99,,,0.00,weatherlink.com 1.10,2013-09-04 02:50:00,
2013-09-03 23:05:00,65.9,57.0,29.93,West,267,2.0,-999.0,74,-99.99,,,0.00,weatherlink.com 1.10,2013-09-04 03:05:00,
2013-09-03 23:20:00,65.2,57.0,29.93,WSW,250,1.0,-999.0,75,-99.99,,,0.00,weatherlink.com 1.10,2013-09-04 03:20:00,
2013-09-03 23:35:00,64.8,57.0,29.93,West,277,0.0,-999.0,77,-99.99,,,0.00,weatherlink.com 1.10,2013-09-04 03:35:00,
2013-09-03 23:50:00,64.6,58.0,29.94,WSW,243,0.0,-999.0,78,-99.99,,,0.00,weatherlink.com 1.10,2013-09-04 03:50:00,